GMADGCRR

Guest
Details From GMAD - Agadir AL MASSIRA
To GCRR - Lanzarote
Flight Number -
Tags generated
Created
Modified
Stats Distance 234 nm / 433 km
Max Altitude 14,500 ft / 4,420 m
Waypoints 4
Social Downloads 1
Likes 0
Share VATSIM

Download

Looking for another format? Having issues loading an existing format? Contact us
Advertisement - Login to hide

Notes

Basic altitude profile: - Ascent Rate: 2500ft/min - Ascent Speed: 250kts - Cruise Altitude: 35000ft - Cruise Speed: 420kts - Descent Rate: 1500ft/min - Descent Speed: 250kts Options: - Use NATs: yes - Use PACOTS: yes - Use low airways: yes - Use high airways: yes

Route

GMAD SOMOM G850 DEVLA GCRR

ID Type Via Altitude Latitude Longitude Leg Dist Tot Dist Heading (true) Name
O GMAD APT - 0 ft / 0 m 30.32262˚ -9.41153˚ - 0 nm - Agadir AL MASSIRA
SOMOM FIX - 14,500 ft / 4,420 m 30.07250˚ -10.19917˚ 43 nm 43 nm 250° / 250° -
DEVLA FIX G850 (AWY-LO) 10,700 ft / 3,261 m 29.24806˚ -12.71833˚ 140 nm 184 nm 250° / 249° -
O GCRR APT - 0 ft / 0 m 28.94547˚ -13.60522˚ 49 nm 234 nm 249° / 248° Lanzarote

Altitude Profile

Advertisement - Login to hide

Weather


0- 5 10 15 20 25 30 35+ Temperature / ° C

Clouds and Precipitation
Forecast for 2017-12-17 00:00 UTC. Updated an hour ago

Ground ~20,000 ft ~40,000 ft Winds

GMAD

Details ICAO GMAD
Name Agadir AL MASSIRA
Region Morocco
Timezone Africa/Casablanca (UTC+0.0)
Stats Elevation 250 ft / 76 m (AMSL)
Location 30.322623° -9.411528°
Runways 1
Magnetic Variation 2.481° W

METAR

GMAD 162000Z 20005KT 140V270 8000 SCT006 BKN016 16/14 Q1018 NOSIG

Decode

TAF

TAF GMAD 161700Z 1618/1724 20008KT 8000 BKN016= TAF GMME 161700Z 1618/1724 32008KT 6000 SCT013 SCT020 TEMPO 1700/1706 160006KT TEMPO 1712/1718 04008KT 9999 SCT016

Decode

Departure Runways

ID Width Length Bearing (true) Bearing (mag) Surface Threshold Offset Overrun Length
10 148 ft / 45 m 10,509 ft / 3,203 m 91.58° 94.06° Asphalt 0 ft / 0 m 0 ft / 0 m
28 148 ft / 45 m 10,509 ft / 3,203 m 271.60° 274.08° Asphalt 0 ft / 0 m 0 ft / 0 m

GCRR

Details ICAO GCRR (ACE)
Name Lanzarote
Region Canary Islands
Timezone Atlantic/Canary (UTC+0.0)
Stats Elevation 0 ft / 0 m (AMSL)
Location 28.945466° -13.605223°
Runways 1
Magnetic Variation 3.976° W

METAR

GCRR 162000Z 02008KT 9999 -DZ FEW018 BKN035 19/17 Q1021

Decode

TAF

TAF GCRR 162000Z 1621/1721 02012KT 9999 BKN025 TX21/1714Z TN13/1706Z PROB40 TEMPO 1621/1712 RA

Decode

Destination Runways

ID Width Length Bearing (true) Bearing (mag) Surface Threshold Offset Overrun Length
03 148 ft / 45 m 7,893 ft / 2,406 m 26.90° 30.88° Asphalt 197 ft / 60 m 197 ft / 60 m
21 148 ft / 45 m 7,893 ft / 2,406 m 206.91° 210.89° Asphalt 197 ft / 60 m 197 ft / 60 m

Approach Navaids

Runway Type Ident Frequency Range Bearing (true) Bearing (mag) Slope Elevation
03 Localiser IRR 109.10 MHz 18 nm / 33 km 26.90° 30.88° - 47 ft / 14 m (AMSL)
03 Glidescope IRR 109.10 MHz 10 nm / 19 km 26.90° 30.88° 3.00° 0 ft / 0 m (AMSL)
03 DME IRR 109.10 MHz 18 nm / 33 km - - - 36 ft / 11 m (AMSL)